Winston Salem, NC

11:05 PM EST on December 27, 2014 (GMT -0500)
Smith Reynolds | Change Station
CLOSE
Current Station
Airport
Location: Winston-Salem,
Elevation: 968 ft
Nearby Weather Stations

Elev 968 ft 36.13 °N, 80.22 °W | Updated 11 minutes ago

Partly Cloudy
Partly Cloudy
53 °F
Feels Like 53 °F
N
7
Wind Variable Wind from SW

Today
High -- | Low -- °F
--% Chance of Precip.
Yesterday
High -- | Low -- °F
Precip. -- in
7:30 AM 5:13 PM
Waxing Crescent, 43% visible
Pressure 30.17 in
Visibility 10.0 miles
Clouds Few 9000 ft
Dew Point 34 °F
Humidity 48%
Rainfall 0.00 in
Snow Depth Not available.
UV 0 out of 12
Pollen 2.00 out of 12
Air Quality Not available.
Flu Activity Not available.
METAR KINT 280354Z 22006KT 10SM FEW090 12/01 A3018 RMK AO2 SLP217 T01170011 $

More Conditions Fewer Conditions

Pressure 30.17 in
Visibility 10.0 miles
Clouds Few 9000 ft
Dew Point 34 °F
Humidity 48%
Rainfall 0.00 in
Snow Depth Not available.
UV 0 out of 12
Pollen 2.00 out of 12
Air Quality Not available.
Flu Activity Not available.
METAR KINT 280354Z 22006KT 10SM FEW090 12/01 A3018 RMK AO2 SLP217 T01170011 $

More Conditions Fewer Conditions

10-Day Weather Forecast

Almanac

Astronomy

Dec. 27, 2014 Rise Set
Actual Time
Civil Twilight
Nautical Twilight
Astronomical Twilight
Moon
Length of Visible Light
Length of Day
Tomorrow will be .
, % of the Moon is Illuminated

Today's Extremes

State Highs State Lows

Community

WunderPhotos

Upload Photos

1,781,187 photos uploaded!

WunderBlogs® & News

Nearby

Air Quality

  Air Quality AQ Index Pollutant
Not available.

Snow Depth

Station Depth Elevation

Earthquake Activity

City Distance Mag. Time & Date
Minimum magnitude displayed is 2.5.

Coastal Water Temperatures

Place Temperature

Nearby Weather Stations